sensor_id;sensor_type;location;lat;lon;timestamp;P1;durP1;ratioP1;P2;durP2;ratioP2
15915;SDS011;8057;47.830;-3.870;2024-02-14T00:00:25;43.33;;;7.70;;
15915;SDS011;8057;47.830;-3.870;2024-02-14T00:04:35;38.10;;;7.97;;
15915;SDS011;8057;47.830;-3.870;2024-02-14T00:08:45;38.83;;;6.93;;
15915;SDS011;8057;47.830;-3.870;2024-02-14T00:12:56;33.17;;;6.70;;
15915;SDS011;8057;47.830;-3.870;2024-02-14T00:17:05;39.93;;;6.47;;
15915;SDS011;8057;47.830;-3.870;2024-02-14T00:21:14;42.33;;;7.77;;
15915;SDS011;8057;47.830;-3.870;2024-02-14T00:25:23;42.30;;;7.53;;
15915;SDS011;8057;47.830;-3.870;2024-02-14T00:29:34;39.60;;;6.37;;
15915;SDS011;8057;47.830;-3.870;2024-02-14T00:33:43;34.83;;;5.63;;
15915;SDS011;8057;47.830;-3.870;2024-02-14T00:37:53;31.43;;;5.93;;
15915;SDS011;8057;47.830;-3.870;2024-02-14T00:42:02;32.00;;;5.73;;
15915;SDS011;8057;47.830;-3.870;2024-02-14T00:46:16;38.00;;;6.40;;
15915;SDS011;8057;47.830;-3.870;2024-02-14T00:50:25;37.13;;;6.70;;
15915;SDS011;8057;47.830;-3.870;2024-02-14T00:54:34;29.00;;;5.80;;
15915;SDS011;8057;47.830;-3.870;2024-02-14T00:58:43;30.30;;;5.80;;
15915;SDS011;8057;47.830;-3.870;2024-02-14T01:02:54;35.77;;;5.87;;
15915;SDS011;8057;47.830;-3.870;2024-02-14T01:07:04;36.00;;;5.47;;
15915;SDS011;8057;47.830;-3.870;2024-02-14T01:11:13;33.57;;;4.97;;
15915;SDS011;8057;47.830;-3.870;2024-02-14T01:15:22;36.50;;;6.63;;
15915;SDS011;8057;47.830;-3.870;2024-02-14T01:19:32;39.50;;;6.90;;
15915;SDS011;8057;47.830;-3.870;2024-02-14T01:23:42;30.90;;;6.30;;
15915;SDS011;8057;47.830;-3.870;2024-02-14T01:27:51;34.90;;;6.67;;
15915;SDS011;8057;47.830;-3.870;2024-02-14T01:32:00;31.10;;;5.57;;
15915;SDS011;8057;47.830;-3.870;2024-02-14T01:36:12;33.10;;;5.37;;
15915;SDS011;8057;47.830;-3.870;2024-02-14T01:40:23;30.93;;;4.83;;
15915;SDS011;8057;47.830;-3.870;2024-02-14T01:44:32;32.07;;;5.13;;
15915;SDS011;8057;47.830;-3.870;2024-02-14T01:48:43;26.40;;;4.80;;
15915;SDS011;8057;47.830;-3.870;2024-02-14T01:52:54;30.83;;;5.67;;
15915;SDS011;8057;47.830;-3.870;2024-02-14T01:57:05;28.03;;;4.77;;
15915;SDS011;8057;47.830;-3.870;2024-02-14T02:01:18;26.10;;;4.97;;
15915;SDS011;8057;47.830;-3.870;2024-02-14T02:05:27;33.60;;;6.30;;
15915;SDS011;8057;47.830;-3.870;2024-02-14T02:09:37;27.37;;;5.67;;
15915;SDS011;8057;47.830;-3.870;2024-02-14T02:13:46;35.20;;;5.60;;
15915;SDS011;8057;47.830;-3.870;2024-02-14T02:17:55;39.03;;;5.97;;
15915;SDS011;8057;47.830;-3.870;2024-02-14T02:22:06;44.17;;;6.33;;
15915;SDS011;8057;47.830;-3.870;2024-02-14T02:26:18;41.80;;;6.50;;
15915;SDS011;8057;47.830;-3.870;2024-02-14T02:30:27;44.47;;;7.07;;
15915;SDS011;8057;47.830;-3.870;2024-02-14T02:34:36;43.80;;;6.90;;
15915;SDS011;8057;47.830;-3.870;2024-02-14T02:38:46;36.00;;;6.10;;
15915;SDS011;8057;47.830;-3.870;2024-02-14T02:42:57;34.77;;;6.27;;
15915;SDS011;8057;47.830;-3.870;2024-02-14T02:47:07;30.77;;;5.37;;
15915;SDS011;8057;47.830;-3.870;2024-02-14T02:51:17;35.33;;;6.03;;
15915;SDS011;8057;47.830;-3.870;2024-02-14T02:55:26;29.70;;;5.20;;
15915;SDS011;8057;47.830;-3.870;2024-02-14T02:59:37;32.30;;;5.67;;
15915;SDS011;8057;47.830;-3.870;2024-02-14T03:03:50;34.20;;;6.27;;
15915;SDS011;8057;47.830;-3.870;2024-02-14T03:07:59;25.23;;;5.47;;
15915;SDS011;8057;47.830;-3.870;2024-02-14T03:12:09;30.33;;;6.10;;
15915;SDS011;8057;47.830;-3.870;2024-02-14T03:16:24;36.50;;;6.33;;
15915;SDS011;8057;47.830;-3.870;2024-02-14T03:20:33;41.03;;;6.77;;
15915;SDS011;8057;47.830;-3.870;2024-02-14T03:24:42;36.50;;;6.60;;
15915;SDS011;8057;47.830;-3.870;2024-02-14T03:28:53;36.67;;;6.53;;
15915;SDS011;8057;47.830;-3.870;2024-02-14T03:33:04;44.63;;;7.27;;
15915;SDS011;8057;47.830;-3.870;2024-02-14T03:37:15;51.27;;;7.30;;
15915;SDS011;8057;47.830;-3.870;2024-02-14T03:41:24;36.97;;;6.70;;
15915;SDS011;8057;47.830;-3.870;2024-02-14T03:45:34;36.70;;;6.67;;
15915;SDS011;8057;47.830;-3.870;2024-02-14T03:49:44;28.47;;;6.70;;
15915;SDS011;8057;47.830;-3.870;2024-02-14T03:53:53;38.80;;;6.63;;
15915;SDS011;8057;47.830;-3.870;2024-02-14T03:58:02;36.70;;;7.00;;
15915;SDS011;8057;47.830;-3.870;2024-02-14T04:02:13;40.00;;;6.33;;
15915;SDS011;8057;47.830;-3.870;2024-02-14T04:06:24;38.87;;;6.93;;
15915;SDS011;8057;47.830;-3.870;2024-02-14T04:10:34;36.43;;;6.03;;
15915;SDS011;8057;47.830;-3.870;2024-02-14T04:14:42;44.07;;;7.43;;
15915;SDS011;8057;47.830;-3.870;2024-02-14T04:18:52;35.40;;;6.07;;
15915;SDS011;8057;47.830;-3.870;2024-02-14T04:23:04;41.27;;;6.63;;
15915;SDS011;8057;47.830;-3.870;2024-02-14T04:27:14;43.43;;;6.77;;
15915;SDS011;8057;47.830;-3.870;2024-02-14T04:31:23;42.60;;;7.33;;
15915;SDS011;8057;47.830;-3.870;2024-02-14T04:35:33;35.50;;;6.50;;
15915;SDS011;8057;47.830;-3.870;2024-02-14T04:39:43;54.43;;;8.73;;
15915;SDS011;8057;47.830;-3.870;2024-02-14T04:43:52;36.60;;;6.77;;
15915;SDS011;8057;47.830;-3.870;2024-02-14T04:48:01;39.27;;;6.90;;
15915;SDS011;8057;47.830;-3.870;2024-02-14T04:52:11;34.53;;;7.13;;
15915;SDS011;8057;47.830;-3.870;2024-02-14T04:56:21;40.90;;;7.33;;
15915;SDS011;8057;47.830;-3.870;2024-02-14T05:00:30;39.83;;;7.97;;
15915;SDS011;8057;47.830;-3.870;2024-02-14T05:04:39;38.83;;;7.30;;
15915;SDS011;8057;47.830;-3.870;2024-02-14T05:08:48;33.37;;;6.17;;
15915;SDS011;8057;47.830;-3.870;2024-02-14T05:12:59;35.47;;;6.93;;
15915;SDS011;8057;47.830;-3.870;2024-02-14T05:17:09;34.47;;;6.13;;
15915;SDS011;8057;47.830;-3.870;2024-02-14T05:21:19;40.53;;;7.00;;
15915;SDS011;8057;47.830;-3.870;2024-02-14T05:25:29;40.20;;;7.20;;
15915;SDS011;8057;47.830;-3.870;2024-02-14T05:29:41;31.33;;;6.20;;
15915;SDS011;8057;47.830;-3.870;2024-02-14T05:33:50;31.63;;;6.60;;
15915;SDS011;8057;47.830;-3.870;2024-02-14T05:37:59;35.37;;;7.00;;
15915;SDS011;8057;47.830;-3.870;2024-02-14T05:42:08;46.73;;;7.53;;
15915;SDS011;8057;47.830;-3.870;2024-02-14T05:46:18;33.87;;;6.30;;
15915;SDS011;8057;47.830;-3.870;2024-02-14T05:50:28;37.17;;;7.30;;
15915;SDS011;8057;47.830;-3.870;2024-02-14T05:54:37;38.73;;;6.97;;
15915;SDS011;8057;47.830;-3.870;2024-02-14T05:58:46;41.90;;;7.47;;
15915;SDS011;8057;47.830;-3.870;2024-02-14T06:02:56;36.90;;;8.13;;
15915;SDS011;8057;47.830;-3.870;2024-02-14T06:07:05;30.53;;;6.83;;
15915;SDS011;8057;47.830;-3.870;2024-02-14T06:11:16;34.53;;;6.67;;
15915;SDS011;8057;47.830;-3.870;2024-02-14T06:15:27;37.93;;;7.60;;
15915;SDS011;8057;47.830;-3.870;2024-02-14T06:19:38;35.40;;;6.57;;
15915;SDS011;8057;47.830;-3.870;2024-02-14T06:23:47;28.07;;;5.80;;
15915;SDS011;8057;47.830;-3.870;2024-02-14T06:27:56;31.93;;;6.87;;
15915;SDS011;8057;47.830;-3.870;2024-02-14T06:32:06;34.87;;;6.40;;
15915;SDS011;8057;47.830;-3.870;2024-02-14T06:36:16;34.53;;;7.30;;
15915;SDS011;8057;47.830;-3.870;2024-02-14T06:40:25;29.07;;;6.40;;
15915;SDS011;8057;47.830;-3.870;2024-02-14T06:44:36;39.30;;;7.57;;
15915;SDS011;8057;47.830;-3.870;2024-02-14T06:48:45;33.83;;;6.37;;
15915;SDS011;8057;47.830;-3.870;2024-02-14T06:52:56;35.60;;;7.73;;
15915;SDS011;8057;47.830;-3.870;2024-02-14T06:57:07;36.30;;;7.73;;
15915;SDS011;8057;47.830;-3.870;2024-02-14T07:01:16;34.33;;;7.07;;
15915;SDS011;8057;47.830;-3.870;2024-02-14T07:05:28;31.77;;;5.63;;
15915;SDS011;8057;47.830;-3.870;2024-02-14T07:09:39;31.17;;;6.73;;
15915;SDS011;8057;47.830;-3.870;2024-02-14T07:13:49;35.40;;;7.10;;
15915;SDS011;8057;47.830;-3.870;2024-02-14T07:17:58;37.37;;;7.17;;
15915;SDS011;8057;47.830;-3.870;2024-02-14T07:22:07;33.23;;;6.70;;
15915;SDS011;8057;47.830;-3.870;2024-02-14T07:26:19;36.53;;;5.77;;
15915;SDS011;8057;47.830;-3.870;2024-02-14T07:30:28;33.63;;;6.67;;
15915;SDS011;8057;47.830;-3.870;2024-02-14T07:34:38;27.73;;;6.43;;
15915;SDS011;8057;47.830;-3.870;2024-02-14T07:38:48;33.43;;;6.80;;
15915;SDS011;8057;47.830;-3.870;2024-02-14T07:42:59;30.87;;;5.77;;
15915;SDS011;8057;47.830;-3.870;2024-02-14T07:47:09;34.37;;;6.67;;
15915;SDS011;8057;47.830;-3.870;2024-02-14T07:51:19;34.73;;;7.00;;
15915;SDS011;8057;47.830;-3.870;2024-02-14T07:55:28;34.93;;;6.77;;
15915;SDS011;8057;47.830;-3.870;2024-02-14T07:59:38;27.43;;;5.27;;
15915;SDS011;8057;47.830;-3.870;2024-02-14T08:03:48;29.83;;;6.70;;
15915;SDS011;8057;47.830;-3.870;2024-02-14T08:07:57;37.33;;;6.87;;
15915;SDS011;8057;47.830;-3.870;2024-02-14T08:12:06;29.37;;;5.63;;
15915;SDS011;8057;47.830;-3.870;2024-02-14T08:16:17;29.97;;;5.97;;
15915;SDS011;8057;47.830;-3.870;2024-02-14T08:20:26;34.13;;;6.60;;
15915;SDS011;8057;47.830;-3.870;2024-02-14T08:24:35;34.07;;;6.60;;
15915;SDS011;8057;47.830;-3.870;2024-02-14T08:28:44;29.40;;;6.30;;
15915;SDS011;8057;47.830;-3.870;2024-02-14T08:32:55;25.40;;;5.47;;
15915;SDS011;8057;47.830;-3.870;2024-02-14T08:37:05;23.90;;;5.57;;
15915;SDS011;8057;47.830;-3.870;2024-02-14T08:41:15;36.70;;;6.60;;
15915;SDS011;8057;47.830;-3.870;2024-02-14T08:45:25;26.20;;;6.40;;
15915;SDS011;8057;47.830;-3.870;2024-02-14T08:49:40;30.50;;;5.97;;
15915;SDS011;8057;47.830;-3.870;2024-02-14T08:53:49;31.67;;;5.80;;
15915;SDS011;8057;47.830;-3.870;2024-02-14T08:58:01;30.03;;;5.73;;
15915;SDS011;8057;47.830;-3.870;2024-02-14T09:02:11;27.37;;;5.33;;
15915;SDS011;8057;47.830;-3.870;2024-02-14T09:06:21;24.60;;;5.00;;
15915;SDS011;8057;47.830;-3.870;2024-02-14T09:10:31;34.67;;;5.30;;
15915;SDS011;8057;47.830;-3.870;2024-02-14T09:14:40;19.73;;;5.20;;
15915;SDS011;8057;47.830;-3.870;2024-02-14T09:18:50;31.60;;;5.17;;
15915;SDS011;8057;47.830;-3.870;2024-02-14T09:23:01;26.50;;;5.97;;
15915;SDS011;8057;47.830;-3.870;2024-02-14T09:27:10;24.67;;;4.93;;
15915;SDS011;8057;47.830;-3.870;2024-02-14T09:31:21;23.30;;;4.97;;
15915;SDS011;8057;47.830;-3.870;2024-02-14T09:35:30;23.13;;;5.13;;
15915;SDS011;8057;47.830;-3.870;2024-02-14T09:39:41;21.17;;;4.17;;
15915;SDS011;8057;47.830;-3.870;2024-02-14T09:43:52;25.73;;;5.30;;
15915;SDS011;8057;47.830;-3.870;2024-02-14T09:48:01;28.60;;;5.57;;
15915;SDS011;8057;47.830;-3.870;2024-02-14T09:52:12;22.87;;;4.90;;
15915;SDS011;8057;47.830;-3.870;2024-02-14T09:56:24;15.60;;;4.40;;
15915;SDS011;8057;47.830;-3.870;2024-02-14T10:00:34;16.03;;;3.93;;
15915;SDS011;8057;47.830;-3.870;2024-02-14T10:04:43;17.40;;;4.23;;
15915;SDS011;8057;47.830;-3.870;2024-02-14T10:08:53;24.80;;;4.80;;
15915;SDS011;8057;47.830;-3.870;2024-02-14T10:13:11;19.40;;;4.07;;
15915;SDS011;8057;47.830;-3.870;2024-02-14T10:17:25;15.80;;;3.73;;
15915;SDS011;8057;47.830;-3.870;2024-02-14T10:21:34;21.53;;;4.53;;
15915;SDS011;8057;47.830;-3.870;2024-02-14T10:25:43;19.30;;;3.83;;
15915;SDS011;8057;47.830;-3.870;2024-02-14T10:29:57;25.23;;;4.87;;
15915;SDS011;8057;47.830;-3.870;2024-02-14T10:34:07;20.20;;;4.20;;
15915;SDS011;8057;47.830;-3.870;2024-02-14T10:38:17;24.50;;;5.53;;
15915;SDS011;8057;47.830;-3.870;2024-02-14T10:42:28;25.87;;;5.20;;
15915;SDS011;8057;47.830;-3.870;2024-02-14T10:46:39;19.20;;;4.50;;
15915;SDS011;8057;47.830;-3.870;2024-02-14T10:50:49;20.77;;;4.03;;
15915;SDS011;8057;47.830;-3.870;2024-02-14T10:55:01;22.10;;;4.60;;
15915;SDS011;8057;47.830;-3.870;2024-02-14T10:59:12;14.27;;;3.70;;
15915;SDS011;8057;47.830;-3.870;2024-02-14T11:03:25;15.97;;;4.23;;
15915;SDS011;8057;47.830;-3.870;2024-02-14T11:07:36;18.10;;;3.93;;
15915;SDS011;8057;47.830;-3.870;2024-02-14T11:11:45;19.20;;;4.40;;
15915;SDS011;8057;47.830;-3.870;2024-02-14T11:15:55;17.70;;;3.67;;
15915;SDS011;8057;47.830;-3.870;2024-02-14T11:20:14;15.20;;;3.77;;
15915;SDS011;8057;47.830;-3.870;2024-02-14T11:24:26;12.37;;;3.40;;
15915;SDS011;8057;47.830;-3.870;2024-02-14T11:28:37;14.07;;;2.97;;
15915;SDS011;8057;47.830;-3.870;2024-02-14T11:32:48;14.83;;;3.70;;
15915;SDS011;8057;47.830;-3.870;2024-02-14T11:37:01;17.57;;;4.27;;
15915;SDS011;8057;47.830;-3.870;2024-02-14T11:41:11;14.50;;;3.67;;
15915;SDS011;8057;47.830;-3.870;2024-02-14T11:45:21;17.33;;;3.67;;
15915;SDS011;8057;47.830;-3.870;2024-02-14T11:49:31;25.37;;;4.50;;
15915;SDS011;8057;47.830;-3.870;2024-02-14T11:53:42;13.73;;;3.77;;
15915;SDS011;8057;47.830;-3.870;2024-02-14T11:57:51;16.10;;;3.97;;
15915;SDS011;8057;47.830;-3.870;2024-02-14T12:02:01;17.47;;;3.80;;
15915;SDS011;8057;47.830;-3.870;2024-02-14T12:06:11;18.70;;;3.93;;
15915;SDS011;8057;47.830;-3.870;2024-02-14T12:10:24;19.57;;;4.40;;
15915;SDS011;8057;47.830;-3.870;2024-02-14T12:14:33;20.53;;;3.70;;
15915;SDS011;8057;47.830;-3.870;2024-02-14T12:18:42;19.80;;;4.60;;
15915;SDS011;8057;47.830;-3.870;2024-02-14T12:22:52;16.60;;;3.93;;
15915;SDS011;8057;47.830;-3.870;2024-02-14T12:27:03;16.53;;;3.77;;
15915;SDS011;8057;47.830;-3.870;2024-02-14T12:31:13;19.40;;;4.27;;
15915;SDS011;8057;47.830;-3.870;2024-02-14T12:35:31;16.00;;;3.60;;
15915;SDS011;8057;47.830;-3.870;2024-02-14T12:39:42;19.73;;;4.23;;
15915;SDS011;8057;47.830;-3.870;2024-02-14T12:43:53;20.90;;;4.57;;
15915;SDS011;8057;47.830;-3.870;2024-02-14T12:48:02;16.03;;;3.80;;
15915;SDS011;8057;47.830;-3.870;2024-02-14T12:52:12;17.60;;;3.47;;
15915;SDS011;8057;47.830;-3.870;2024-02-14T12:56:21;15.80;;;3.50;;
15915;SDS011;8057;47.830;-3.870;2024-02-14T13:00:33;18.90;;;4.87;;
15915;SDS011;8057;47.830;-3.870;2024-02-14T13:04:42;21.60;;;4.47;;
15915;SDS011;8057;47.830;-3.870;2024-02-14T13:08:51;22.80;;;4.30;;
15915;SDS011;8057;47.830;-3.870;2024-02-14T13:13:03;13.60;;;3.40;;
15915;SDS011;8057;47.830;-3.870;2024-02-14T13:17:14;15.83;;;3.93;;
15915;SDS011;8057;47.830;-3.870;2024-02-14T13:21:23;17.63;;;4.33;;
15915;SDS011;8057;47.830;-3.870;2024-02-14T13:25:33;16.50;;;4.37;;
15915;SDS011;8057;47.830;-3.870;2024-02-14T13:29:43;12.27;;;2.73;;
15915;SDS011;8057;47.830;-3.870;2024-02-14T13:33:53;17.27;;;3.13;;
15915;SDS011;8057;47.830;-3.870;2024-02-14T13:38:03;18.00;;;3.63;;
15915;SDS011;8057;47.830;-3.870;2024-02-14T13:42:12;11.60;;;3.43;;
15915;SDS011;8057;47.830;-3.870;2024-02-14T13:46:22;18.27;;;3.87;;
15915;SDS011;8057;47.830;-3.870;2024-02-14T13:50:34;14.13;;;3.30;;
15915;SDS011;8057;47.830;-3.870;2024-02-14T13:54:46;11.90;;;3.50;;
15915;SDS011;8057;47.830;-3.870;2024-02-14T13:59:17;17.13;;;3.53;;
15915;SDS011;8057;47.830;-3.870;2024-02-14T14:03:27;18.30;;;3.33;;
15915;SDS011;8057;47.830;-3.870;2024-02-14T14:07:38;13.90;;;3.07;;
15915;SDS011;8057;47.830;-3.870;2024-02-14T14:12:03;14.83;;;3.33;;
15915;SDS011;8057;47.830;-3.870;2024-02-14T14:16:13;21.90;;;3.87;;
15915;SDS011;8057;47.830;-3.870;2024-02-14T14:20:22;13.87;;;3.30;;
15915;SDS011;8057;47.830;-3.870;2024-02-14T14:24:33;11.90;;;3.10;;
15915;SDS011;8057;47.830;-3.870;2024-02-14T14:28:42;14.10;;;3.10;;
15915;SDS011;8057;47.830;-3.870;2024-02-14T14:32:51;10.33;;;3.10;;
15915;SDS011;8057;47.830;-3.870;2024-02-14T14:37:01;13.47;;;3.27;;
15915;SDS011;8057;47.830;-3.870;2024-02-14T14:41:12;10.90;;;2.77;;
15915;SDS011;8057;47.830;-3.870;2024-02-14T14:45:21;14.53;;;3.00;;
15915;SDS011;8057;47.830;-3.870;2024-02-14T14:49:30;15.73;;;3.23;;
15915;SDS011;8057;47.830;-3.870;2024-02-14T14:53:39;11.57;;;3.10;;
15915;SDS011;8057;47.830;-3.870;2024-02-14T14:57:50;15.70;;;3.70;;
15915;SDS011;8057;47.830;-3.870;2024-02-14T15:02:03;16.37;;;2.80;;
15915;SDS011;8057;47.830;-3.870;2024-02-14T15:06:13;18.67;;;3.63;;
15915;SDS011;8057;47.830;-3.870;2024-02-14T15:10:22;15.03;;;3.30;;
15915;SDS011;8057;47.830;-3.870;2024-02-14T15:14:33;13.43;;;2.90;;
15915;SDS011;8057;47.830;-3.870;2024-02-14T15:18:42;12.07;;;3.17;;
15915;SDS011;8057;47.830;-3.870;2024-02-14T15:22:53;12.83;;;3.43;;
15915;SDS011;8057;47.830;-3.870;2024-02-14T15:27:02;19.57;;;3.13;;
15915;SDS011;8057;47.830;-3.870;2024-02-14T15:31:14;14.13;;;3.80;;
15915;SDS011;8057;47.830;-3.870;2024-02-14T15:35:40;10.27;;;3.10;;
15915;SDS011;8057;47.830;-3.870;2024-02-14T15:39:50;17.93;;;3.10;;
15915;SDS011;8057;47.830;-3.870;2024-02-14T15:43:59;12.70;;;3.20;;
15915;SDS011;8057;47.830;-3.870;2024-02-14T15:48:10;13.50;;;3.40;;
15915;SDS011;8057;47.830;-3.870;2024-02-14T15:52:22;13.47;;;3.40;;
15915;SDS011;8057;47.830;-3.870;2024-02-14T15:56:31;17.03;;;3.60;;
15915;SDS011;8057;47.830;-3.870;2024-02-14T16:00:40;12.10;;;3.27;;
15915;SDS011;8057;47.830;-3.870;2024-02-14T16:04:51;16.57;;;3.60;;
15915;SDS011;8057;47.830;-3.870;2024-02-14T16:09:00;14.10;;;3.23;;
15915;SDS011;8057;47.830;-3.870;2024-02-14T16:13:09;13.63;;;3.33;;
15915;SDS011;8057;47.830;-3.870;2024-02-14T16:17:19;11.40;;;3.20;;
15915;SDS011;8057;47.830;-3.870;2024-02-14T16:21:30;13.90;;;3.17;;
15915;SDS011;8057;47.830;-3.870;2024-02-14T16:25:39;19.27;;;3.73;;
15915;SDS011;8057;47.830;-3.870;2024-02-14T16:29:48;18.33;;;4.20;;
15915;SDS011;8057;47.830;-3.870;2024-02-14T16:33:58;20.27;;;4.00;;
15915;SDS011;8057;47.830;-3.870;2024-02-14T16:38:09;19.20;;;3.60;;
15915;SDS011;8057;47.830;-3.870;2024-02-14T16:42:19;17.40;;;3.33;;
15915;SDS011;8057;47.830;-3.870;2024-02-14T16:46:28;19.80;;;3.93;;
15915;SDS011;8057;47.830;-3.870;2024-02-14T16:50:38;16.60;;;3.90;;
15915;SDS011;8057;47.830;-3.870;2024-02-14T16:54:50;17.33;;;3.83;;
15915;SDS011;8057;47.830;-3.870;2024-02-14T16:59:00;18.20;;;3.57;;
15915;SDS011;8057;47.830;-3.870;2024-02-14T17:03:09;15.30;;;3.70;;
15915;SDS011;8057;47.830;-3.870;2024-02-14T17:07:23;21.70;;;4.67;;
15915;SDS011;8057;47.830;-3.870;2024-02-14T17:11:35;17.27;;;3.40;;
15915;SDS011;8057;47.830;-3.870;2024-02-14T17:15:44;20.40;;;4.10;;
15915;SDS011;8057;47.830;-3.870;2024-02-14T17:19:54;14.87;;;3.70;;
15915;SDS011;8057;47.830;-3.870;2024-02-14T17:24:03;16.13;;;4.03;;
15915;SDS011;8057;47.830;-3.870;2024-02-14T17:28:14;14.77;;;3.70;;
15915;SDS011;8057;47.830;-3.870;2024-02-14T17:32:23;16.37;;;4.30;;
15915;SDS011;8057;47.830;-3.870;2024-02-14T17:36:45;16.93;;;3.93;;
15915;SDS011;8057;47.830;-3.870;2024-02-14T17:40:55;14.47;;;3.77;;
15915;SDS011;8057;47.830;-3.870;2024-02-14T17:45:06;15.77;;;3.77;;
15915;SDS011;8057;47.830;-3.870;2024-02-14T17:49:16;16.20;;;4.10;;
15915;SDS011;8057;47.830;-3.870;2024-02-14T17:53:26;16.37;;;3.47;;
15915;SDS011;8057;47.830;-3.870;2024-02-14T17:57:36;16.10;;;3.73;;
15915;SDS011;8057;47.830;-3.870;2024-02-14T18:01:47;15.10;;;3.80;;
15915;SDS011;8057;47.830;-3.870;2024-02-14T18:05:56;14.57;;;4.03;;
15915;SDS011;8057;47.830;-3.870;2024-02-14T18:10:05;13.57;;;3.50;;
15915;SDS011;8057;47.830;-3.870;2024-02-14T18:14:15;15.50;;;4.70;;
15915;SDS011;8057;47.830;-3.870;2024-02-14T18:18:26;15.53;;;3.83;;
15915;SDS011;8057;47.830;-3.870;2024-02-14T18:22:39;20.37;;;4.87;;
15915;SDS011;8057;47.830;-3.870;2024-02-14T18:26:48;18.50;;;4.97;;
15915;SDS011;8057;47.830;-3.870;2024-02-14T18:30:58;17.10;;;4.53;;
15915;SDS011;8057;47.830;-3.870;2024-02-14T18:35:09;20.53;;;4.83;;
15915;SDS011;8057;47.830;-3.870;2024-02-14T18:39:19;19.40;;;5.93;;
15915;SDS011;8057;47.830;-3.870;2024-02-14T18:43:28;15.97;;;5.00;;
15915;SDS011;8057;47.830;-3.870;2024-02-14T18:47:39;19.83;;;5.53;;
15915;SDS011;8057;47.830;-3.870;2024-02-14T18:51:50;21.07;;;5.77;;
15915;SDS011;8057;47.830;-3.870;2024-02-14T18:55:59;15.80;;;5.80;;
15915;SDS011;8057;47.830;-3.870;2024-02-14T19:00:09;17.20;;;5.30;;
15915;SDS011;8057;47.830;-3.870;2024-02-14T19:04:19;20.53;;;5.03;;
15915;SDS011;8057;47.830;-3.870;2024-02-14T19:08:32;20.40;;;4.87;;
15915;SDS011;8057;47.830;-3.870;2024-02-14T19:12:41;24.20;;;6.10;;
15915;SDS011;8057;47.830;-3.870;2024-02-14T19:16:50;17.73;;;4.97;;
15915;SDS011;8057;47.830;-3.870;2024-02-14T19:21:00;24.13;;;5.10;;
15915;SDS011;8057;47.830;-3.870;2024-02-14T19:25:11;20.47;;;4.57;;
15915;SDS011;8057;47.830;-3.870;2024-02-14T19:29:20;16.93;;;4.33;;
15915;SDS011;8057;47.830;-3.870;2024-02-14T19:33:30;28.30;;;4.50;;
15915;SDS011;8057;47.830;-3.870;2024-02-14T19:37:40;19.80;;;4.93;;
15915;SDS011;8057;47.830;-3.870;2024-02-14T19:41:51;13.93;;;3.67;;
15915;SDS011;8057;47.830;-3.870;2024-02-14T19:46:00;16.83;;;4.53;;
15915;SDS011;8057;47.830;-3.870;2024-02-14T19:50:10;17.37;;;5.10;;
15915;SDS011;8057;47.830;-3.870;2024-02-14T19:54:20;13.73;;;4.67;;
15915;SDS011;8057;47.830;-3.870;2024-02-14T19:58:31;16.50;;;4.70;;
15915;SDS011;8057;47.830;-3.870;2024-02-14T20:02:40;11.13;;;4.57;;
15915;SDS011;8057;47.830;-3.870;2024-02-14T20:06:49;15.37;;;4.07;;
15915;SDS011;8057;47.830;-3.870;2024-02-14T20:11:02;11.70;;;4.20;;
15915;SDS011;8057;47.830;-3.870;2024-02-14T20:15:14;14.57;;;3.90;;
15915;SDS011;8057;47.830;-3.870;2024-02-14T20:19:23;16.33;;;3.87;;
15915;SDS011;8057;47.830;-3.870;2024-02-14T20:23:33;17.03;;;3.53;;
15915;SDS011;8057;47.830;-3.870;2024-02-14T20:27:42;14.60;;;3.53;;
15915;SDS011;8057;47.830;-3.870;2024-02-14T20:31:53;16.17;;;4.33;;
15915;SDS011;8057;47.830;-3.870;2024-02-14T20:36:03;14.00;;;4.00;;
15915;SDS011;8057;47.830;-3.870;2024-02-14T20:40:14;11.30;;;3.13;;
15915;SDS011;8057;47.830;-3.870;2024-02-14T20:44:24;10.53;;;3.43;;
15915;SDS011;8057;47.830;-3.870;2024-02-14T20:48:35;11.33;;;3.87;;
15915;SDS011;8057;47.830;-3.870;2024-02-14T20:52:45;11.70;;;4.00;;
15915;SDS011;8057;47.830;-3.870;2024-02-14T20:56:55;12.10;;;3.50;;
15915;SDS011;8057;47.830;-3.870;2024-02-14T21:01:04;9.37;;;3.77;;
15915;SDS011;8057;47.830;-3.870;2024-02-14T21:05:17;10.20;;;3.17;;
15915;SDS011;8057;47.830;-3.870;2024-02-14T21:09:26;11.20;;;3.50;;
15915;SDS011;8057;47.830;-3.870;2024-02-14T21:13:36;8.60;;;2.97;;
15915;SDS011;8057;47.830;-3.870;2024-02-14T21:17:46;5.90;;;3.17;;
15915;SDS011;8057;47.830;-3.870;2024-02-14T21:21:57;7.10;;;2.97;;
15915;SDS011;8057;47.830;-3.870;2024-02-14T21:26:06;9.20;;;4.07;;
15915;SDS011;8057;47.830;-3.870;2024-02-14T21:30:15;8.07;;;3.63;;
15915;SDS011;8057;47.830;-3.870;2024-02-14T21:34:25;11.80;;;3.33;;
15915;SDS011;8057;47.830;-3.870;2024-02-14T21:38:36;9.70;;;3.57;;
15915;SDS011;8057;47.830;-3.870;2024-02-14T21:42:45;10.40;;;3.47;;
15915;SDS011;8057;47.830;-3.870;2024-02-14T21:46:55;8.70;;;3.73;;
15915;SDS011;8057;47.830;-3.870;2024-02-14T21:51:04;6.17;;;3.17;;
15915;SDS011;8057;47.830;-3.870;2024-02-14T21:55:18;10.10;;;3.50;;
15915;SDS011;8057;47.830;-3.870;2024-02-14T21:59:27;10.50;;;3.77;;
15915;SDS011;8057;47.830;-3.870;2024-02-14T22:03:37;9.20;;;3.20;;
15915;SDS011;8057;47.830;-3.870;2024-02-14T22:07:46;14.53;;;3.70;;
15915;SDS011;8057;47.830;-3.870;2024-02-14T22:11:57;14.03;;;3.07;;
15915;SDS011;8057;47.830;-3.870;2024-02-14T22:16:06;10.90;;;3.73;;
15915;SDS011;8057;47.830;-3.870;2024-02-14T22:20:17;10.60;;;4.07;;
15915;SDS011;8057;47.830;-3.870;2024-02-14T22:24:27;11.93;;;3.83;;
15915;SDS011;8057;47.830;-3.870;2024-02-14T22:28:40;10.63;;;3.40;;
15915;SDS011;8057;47.830;-3.870;2024-02-14T22:32:50;9.07;;;4.07;;
15915;SDS011;8057;47.830;-3.870;2024-02-14T22:36:59;7.77;;;3.70;;
15915;SDS011;8057;47.830;-3.870;2024-02-14T22:41:08;10.33;;;3.50;;
15915;SDS011;8057;47.830;-3.870;2024-02-14T22:45:21;12.33;;;4.00;;
15915;SDS011;8057;47.830;-3.870;2024-02-14T22:49:30;9.20;;;3.53;;
15915;SDS011;8057;47.830;-3.870;2024-02-14T22:53:39;9.03;;;3.60;;
15915;SDS011;8057;47.830;-3.870;2024-02-14T22:57:49;12.20;;;3.93;;
15915;SDS011;8057;47.830;-3.870;2024-02-14T23:02:00;7.63;;;3.67;;
15915;SDS011;8057;47.830;-3.870;2024-02-14T23:06:10;8.07;;;3.63;;
15915;SDS011;8057;47.830;-3.870;2024-02-14T23:10:20;6.30;;;2.70;;
15915;SDS011;8057;47.830;-3.870;2024-02-14T23:14:29;6.97;;;3.13;;
15915;SDS011;8057;47.830;-3.870;2024-02-14T23:18:42;15.37;;;3.70;;
15915;SDS011;8057;47.830;-3.870;2024-02-14T23:22:54;8.27;;;3.07;;
15915;SDS011;8057;47.830;-3.870;2024-02-14T23:27:03;8.90;;;2.67;;
15915;SDS011;8057;47.830;-3.870;2024-02-14T23:31:12;7.80;;;3.23;;
15915;SDS011;8057;47.830;-3.870;2024-02-14T23:35:23;9.10;;;3.10;;
15915;SDS011;8057;47.830;-3.870;2024-02-14T23:39:33;7.20;;;2.73;;
15915;SDS011;8057;47.830;-3.870;2024-02-14T23:43:42;5.60;;;3.20;;
15915;SDS011;8057;47.830;-3.870;2024-02-14T23:47:51;8.30;;;3.23;;
15915;SDS011;8057;47.830;-3.870;2024-02-14T23:52:03;6.93;;;2.90;;
15915;SDS011;8057;47.830;-3.870;2024-02-14T23:56:12;6.03;;;3.00;;
